createdAt,value
2018-09-27T00:00:15.593Z,13.70
2018-09-27T00:02:46.395Z,13.70
2018-09-27T00:05:17.886Z,13.70
2018-09-27T00:07:48.044Z,13.70
2018-09-27T00:10:18.396Z,13.70
2018-09-27T00:12:49.835Z,13.70
2018-09-27T00:15:20.903Z,13.60
2018-09-27T00:17:53.221Z,13.60
2018-09-27T00:20:23.388Z,13.50
2018-09-27T00:22:54.293Z,13.50
2018-09-27T00:25:24.373Z,13.50
2018-09-27T00:27:54.334Z,13.50
2018-09-27T00:30:24.651Z,13.50
2018-09-27T00:32:59.283Z,13.40
2018-09-27T00:35:30.178Z,13.50
2018-09-27T00:38:01.612Z,13.40
2018-09-27T00:40:31.885Z,13.40
2018-09-27T00:43:03.260Z,13.40
2018-09-27T00:45:35.814Z,13.40
2018-09-27T00:48:05.763Z,13.30
2018-09-27T00:50:36.184Z,13.30
2018-09-27T00:53:10.506Z,13.20
2018-09-27T00:55:41.195Z,13.20
2018-09-27T00:58:11.670Z,13.20
2018-09-27T01:00:41.926Z,13.30
2018-09-27T01:03:12.198Z,13.30
2018-09-27T01:05:43.224Z,13.30
2018-09-27T01:08:14.299Z,13.20
2018-09-27T01:10:46.181Z,13.20
2018-09-27T01:13:15.928Z,13.20
2018-09-27T01:15:49.005Z,13.20
2018-09-27T01:18:19.205Z,13.20
2018-09-27T01:20:50.179Z,13.20
2018-09-27T01:23:21.212Z,13.20
2018-09-27T01:25:51.573Z,13.20
2018-09-27T01:28:28.510Z,13.20
2018-09-27T01:31:02.042Z,13.20
2018-09-27T01:33:34.023Z,13.20
2018-09-27T01:36:04.768Z,13.20
2018-09-27T01:38:35.702Z,13.10
2018-09-27T01:41:05.819Z,13.10
2018-09-27T01:43:35.891Z,13.10
2018-09-27T01:46:06.525Z,13.10
2018-09-27T01:48:36.853Z,13.10
2018-09-27T01:51:06.898Z,13.10
2018-09-27T01:53:38.022Z,13.10
2018-09-27T01:56:12.179Z,13.00
2018-09-27T01:58:42.428Z,13.00
2018-09-27T02:01:12.421Z,13.00
2018-09-27T02:03:42.321Z,13.00
2018-09-27T02:06:12.855Z,13.00
2018-09-27T02:08:44.079Z,13.00
2018-09-27T02:11:14.505Z,12.90
2018-09-27T02:13:45.039Z,13.00
2018-09-27T02:16:14.885Z,12.90
2018-09-27T02:18:45.275Z,12.90
2018-09-27T02:21:15.402Z,12.90
2018-09-27T02:23:47.542Z,12.90
2018-09-27T02:26:18.018Z,12.80
2018-09-27T02:28:48.496Z,12.80
2018-09-27T02:31:18.649Z,12.80
2018-09-27T02:33:49.858Z,12.80
2018-09-27T02:36:20.246Z,12.80
2018-09-27T02:38:51.498Z,12.80
2018-09-27T02:41:21.992Z,12.80
2018-09-27T02:43:52.436Z,12.80
2018-09-27T02:46:22.883Z,12.80
2018-09-27T02:48:54.106Z,12.80
2018-09-27T02:51:24.348Z,12.80
2018-09-27T02:53:54.822Z,12.80
2018-09-27T02:56:26.101Z,12.80
2018-09-27T02:58:56.396Z,12.80
2018-09-27T03:01:26.785Z,12.70
2018-09-27T03:03:58.972Z,12.70
2018-09-27T03:06:33.711Z,12.70
2018-09-27T03:09:03.958Z,12.70
2018-09-27T03:11:35.662Z,12.70
2018-09-27T03:14:05.983Z,12.70
2018-09-27T03:16:36.252Z,12.70
2018-09-27T03:19:07.239Z,12.60
2018-09-27T03:21:37.314Z,12.60
2018-09-27T03:24:08.828Z,12.60
2018-09-27T03:26:41.963Z,12.50
2018-09-27T03:29:11.977Z,12.50
2018-09-27T03:31:43.971Z,12.50
2018-09-27T03:36:53.140Z,12.40
2018-09-27T03:39:24.393Z,12.40
2018-09-27T03:41:54.804Z,12.40
2018-09-27T03:44:26.988Z,12.40
2018-09-27T03:46:57.143Z,12.40
2018-09-27T03:49:27.461Z,12.40
2018-09-27T03:51:59.330Z,12.30
2018-09-27T03:54:29.511Z,12.40
2018-09-27T03:57:01.525Z,12.40
2018-09-27T03:59:32.214Z,12.40
2018-09-27T04:02:03.078Z,12.30
2018-09-27T04:04:34.494Z,12.40
2018-09-27T04:07:04.290Z,12.30
2018-09-27T04:09:34.821Z,12.40
2018-09-27T04:12:06.789Z,12.30
2018-09-27T04:14:36.915Z,12.30
2018-09-27T04:17:07.840Z,12.30
2018-09-27T04:19:38.123Z,12.20
2018-09-27T04:22:09.118Z,12.30
2018-09-27T04:24:41.888Z,12.30
2018-09-27T04:27:13.332Z,12.30
2018-09-27T04:29:44.884Z,12.30
2018-09-27T04:32:20.158Z,12.30
2018-09-27T04:34:51.382Z,12.30
2018-09-27T04:37:21.158Z,12.20
2018-09-27T04:39:51.235Z,12.20
2018-09-27T04:42:23.679Z,12.20
2018-09-27T04:44:53.792Z,12.20
2018-09-27T04:47:30.715Z,12.20
2018-09-27T04:50:09.404Z,12.20
2018-09-27T04:52:39.844Z,12.20
2018-09-27T04:55:10.517Z,12.10
2018-09-27T04:57:41.066Z,12.10
2018-09-27T05:00:12.469Z,12.10
2018-09-27T05:02:45.003Z,12.10
2018-09-27T05:05:18.214Z,12.10
2018-09-27T05:07:48.743Z,12.10
2018-09-27T05:10:19.030Z,12.10
2018-09-27T05:12:52.852Z,12.10
2018-09-27T05:15:23.658Z,12.00
2018-09-27T05:17:54.475Z,12.00
2018-09-27T05:20:24.848Z,12.00
2018-09-27T05:22:55.292Z,12.00
2018-09-27T05:25:25.497Z,12.00
2018-09-27T05:27:56.470Z,12.00
2018-09-27T05:30:29.776Z,12.00
2018-09-27T05:33:06.222Z,12.00
2018-09-27T05:35:36.475Z,12.10
2018-09-27T05:38:27.488Z,12.10
2018-09-27T05:40:58.366Z,12.10
2018-09-27T05:43:33.693Z,12.10
2018-09-27T05:46:06.770Z,12.10
2018-09-27T05:48:38.464Z,12.10
2018-09-27T05:51:09.821Z,12.10
2018-09-27T05:53:40.472Z,12.10
2018-09-27T05:56:12.815Z,12.20
2018-09-27T05:58:44.504Z,12.10
2018-09-27T06:01:15.173Z,12.20
2018-09-27T06:03:46.831Z,12.20
2018-09-27T06:06:17.493Z,12.20
2018-09-27T06:08:50.348Z,12.20
2018-09-27T06:11:21.213Z,12.20
2018-09-27T06:13:51.970Z,12.20
2018-09-27T06:16:22.700Z,12.20
2018-09-27T06:18:56.713Z,12.20
2018-09-27T06:21:28.118Z,12.30
2018-09-27T06:23:58.937Z,12.30
2018-09-27T06:26:31.433Z,12.30
2018-09-27T06:29:01.435Z,12.30
2018-09-27T06:31:32.622Z,12.30
2018-09-27T06:34:04.684Z,12.30
2018-09-27T06:36:35.090Z,12.30
2018-09-27T06:39:07.398Z,12.30
2018-09-27T06:41:38.221Z,12.40
2018-09-27T06:44:08.771Z,12.40
2018-09-27T06:46:38.833Z,12.40
2018-09-27T06:49:09.357Z,12.40
2018-09-27T06:51:39.866Z,12.40
2018-09-27T06:54:10.679Z,12.50
2018-09-27T06:56:41.112Z,12.50
2018-09-27T06:59:11.465Z,12.50
2018-09-27T07:01:42.748Z,12.50
2018-09-27T07:04:13.299Z,12.60
2018-09-27T07:06:43.676Z,12.60
2018-09-27T07:09:16.499Z,12.60
2018-09-27T07:11:47.782Z,12.60
2018-09-27T07:14:19.689Z,12.60
2018-09-27T07:16:56.865Z,12.70
2018-09-27T07:19:27.414Z,12.70
2018-09-27T07:22:00.385Z,12.70
2018-09-27T07:24:30.310Z,12.70
2018-09-27T07:27:01.757Z,12.70
2018-09-27T07:29:33.590Z,12.80
2018-09-27T07:32:06.329Z,12.80
2018-09-27T07:34:38.063Z,12.80
2018-09-27T07:37:20.494Z,12.90
2018-09-27T07:40:29.895Z,12.90
2018-09-27T07:43:02.211Z,12.90
2018-09-27T07:45:33.696Z,13.00
2018-09-27T07:48:05.247Z,13.00
2018-09-27T07:50:35.093Z,13.10
2018-09-27T07:53:07.357Z,13.10
2018-09-27T07:55:38.068Z,13.10
2018-09-27T07:58:08.764Z,13.10
2018-09-27T08:00:40.253Z,13.20
2018-09-27T08:03:10.971Z,13.20
2018-09-27T08:05:46.244Z,13.30
2018-09-27T08:08:16.536Z,13.30
2018-09-27T08:10:48.502Z,13.30
2018-09-27T08:13:19.207Z,13.40
2018-09-27T08:15:54.327Z,13.40
2018-09-27T08:18:27.942Z,13.40
2018-09-27T08:20:59.224Z,13.50
2018-09-27T08:23:29.243Z,13.50
2018-09-27T08:26:02.399Z,13.60
2018-09-27T08:28:36.511Z,13.60
2018-09-27T08:31:07.225Z,13.70
2018-09-27T08:33:37.154Z,13.80
2018-09-27T08:36:09.011Z,13.80
2018-09-27T08:38:40.370Z,13.80
2018-09-27T08:41:10.431Z,13.90
2018-09-27T08:43:40.761Z,14.00
2018-09-27T08:46:10.833Z,14.00
2018-09-27T08:48:41.738Z,14.10
2018-09-27T08:51:11.752Z,14.20
2018-09-27T08:53:43.008Z,14.30
2018-09-27T08:56:13.948Z,14.30
2018-09-27T08:58:43.755Z,14.40
2018-09-27T09:01:13.996Z,14.40
2018-09-27T09:03:46.208Z,14.40
2018-09-27T09:06:17.366Z,14.40
2018-09-27T09:08:50.916Z,14.50
2018-09-27T09:11:25.921Z,14.60
2018-09-27T09:13:58.071Z,14.70
2018-09-27T09:16:30.988Z,14.70
2018-09-27T09:19:01.267Z,14.70
2018-09-27T09:21:36.085Z,14.70
2018-09-27T09:24:06.969Z,14.80
2018-09-27T09:26:38.213Z,14.80
2018-09-27T09:29:12.425Z,14.80
2018-09-27T09:31:49.401Z,14.80
2018-09-27T09:34:19.717Z,14.90
2018-09-27T09:36:51.228Z,15.10
2018-09-27T09:39:22.173Z,15.20
2018-09-27T09:41:53.339Z,15.20
2018-09-27T09:44:24.936Z,15.30
2018-09-27T09:46:55.907Z,15.40
2018-09-27T09:49:36.812Z,15.40
2018-09-27T09:52:08.971Z,15.50
2018-09-27T09:54:42.028Z,15.50
2018-09-27T09:57:13.369Z,15.50
2018-09-27T09:59:47.381Z,15.50
2018-09-27T10:02:18.989Z,15.60
2018-09-27T10:04:49.762Z,15.70
2018-09-27T10:07:20.212Z,15.80
2018-09-27T10:09:50.601Z,15.80
2018-09-27T10:12:21.184Z,15.90
2018-09-27T10:14:52.348Z,16.00
2018-09-27T10:17:24.979Z,16.10
2018-09-27T10:19:55.317Z,16.10
2018-09-27T10:22:27.536Z,16.10
2018-09-27T10:24:58.972Z,16.10
2018-09-27T10:27:29.690Z,16.20
2018-09-27T10:30:02.940Z,16.30
2018-09-27T10:32:35.309Z,16.40
2018-09-27T10:35:05.330Z,16.50
2018-09-27T10:37:36.164Z,16.50
2018-09-27T10:40:07.976Z,16.50
2018-09-27T10:42:38.925Z,16.60
2018-09-27T10:45:09.395Z,16.60
2018-09-27T10:47:40.711Z,16.70
2018-09-27T10:50:11.087Z,16.90
2018-09-27T10:52:43.209Z,17.20
2018-09-27T10:55:13.562Z,17.30
2018-09-27T10:57:44.348Z,17.40
2018-09-27T11:00:18.502Z,17.40
2018-09-27T11:02:48.877Z,17.30
2018-09-27T11:05:21.370Z,17.20
2018-09-27T11:07:56.517Z,17.20
2018-09-27T11:10:28.155Z,17.20
2018-09-27T11:12:58.629Z,17.20
2018-09-27T11:15:29.978Z,17.20
2018-09-27T11:18:00.176Z,17.10
2018-09-27T11:20:30.709Z,17.00
2018-09-27T11:23:01.680Z,17.20
2018-09-27T11:25:35.651Z,17.40
2018-09-27T11:28:05.921Z,17.60
2018-09-27T11:30:37.003Z,17.60
2018-09-27T11:33:07.705Z,17.60
2018-09-27T11:35:38.387Z,17.50
2018-09-27T11:38:10.418Z,17.40
2018-09-27T11:40:40.790Z,17.60
2018-09-27T11:43:13.000Z,17.70
2018-09-27T11:45:45.941Z,17.80
2018-09-27T11:48:17.846Z,18.00
2018-09-27T11:50:59.149Z,18.10
2018-09-27T11:53:36.268Z,18.10
2018-09-27T11:56:07.674Z,18.20
2018-09-27T11:58:39.299Z,18.40
2018-09-27T12:01:09.777Z,18.50
2018-09-27T12:03:47.416Z,18.60
2018-09-27T12:06:25.754Z,18.60
2018-09-27T12:08:57.319Z,18.70
2018-09-27T12:11:28.845Z,18.70
2018-09-27T12:14:10.847Z,18.80
2018-09-27T12:16:42.210Z,18.90
2018-09-27T12:19:13.027Z,19.00
2018-09-27T12:21:43.869Z,19.00
2018-09-27T12:24:16.016Z,19.00
2018-09-27T12:26:48.406Z,18.90
2018-09-27T12:29:18.918Z,19.10
2018-09-27T12:31:49.763Z,19.30
2018-09-27T12:34:19.784Z,19.50
2018-09-27T12:36:51.910Z,19.60
2018-09-27T12:39:23.389Z,19.70
2018-09-27T12:41:55.466Z,19.70
2018-09-27T12:44:29.889Z,19.70
2018-09-27T12:47:07.599Z,19.70
2018-09-27T12:49:44.987Z,19.60
2018-09-27T12:52:15.129Z,19.60
2018-09-27T12:54:51.458Z,19.70
2018-09-27T12:57:21.309Z,19.80
2018-09-27T12:59:52.916Z,19.90
2018-09-27T13:02:24.255Z,20.00
2018-09-27T13:04:54.690Z,20.10
2018-09-27T13:07:26.150Z,20.00
2018-09-27T13:09:56.785Z,20.10
2018-09-27T13:12:26.984Z,20.10
2018-09-27T13:14:58.297Z,20.20
2018-09-27T13:17:31.054Z,20.50
2018-09-27T13:20:02.173Z,20.70
2018-09-27T13:22:33.262Z,21.10
2018-09-27T13:25:03.656Z,21.40
2018-09-27T13:27:35.470Z,21.70
2018-09-27T13:30:06.657Z,21.70
2018-09-27T13:32:39.416Z,21.70
2018-09-27T13:35:10.013Z,21.70
2018-09-27T13:37:39.817Z,21.90
2018-09-27T13:40:11.777Z,21.80
2018-09-27T13:45:21.657Z,22.30
2018-09-27T13:47:52.492Z,22.50
2018-09-27T13:50:23.533Z,22.70
2018-09-27T13:52:53.818Z,22.70
2018-09-27T13:55:24.498Z,22.80
2018-09-27T13:57:55.045Z,22.80
2018-09-27T14:00:25.886Z,22.70
2018-09-27T14:02:56.923Z,22.70
2018-09-27T14:05:32.196Z,22.60
2018-09-27T14:08:03.536Z,22.60
2018-09-27T14:10:36.981Z,22.90
2018-09-27T14:13:07.887Z,23.00
2018-09-27T14:15:42.519Z,23.30
2018-09-27T14:18:17.016Z,23.30
2018-09-27T14:20:48.142Z,23.30
2018-09-27T14:23:18.506Z,23.50
2018-09-27T14:25:52.130Z,23.70
2018-09-27T14:28:27.288Z,24.10
2018-09-27T14:31:05.110Z,23.90
2018-09-27T14:33:35.494Z,24.00
2018-09-27T14:36:06.709Z,24.20
2018-09-27T14:38:37.704Z,24.00
2018-09-27T14:41:23.688Z,23.90
2018-09-27T14:43:53.688Z,24.20
2018-09-27T14:46:24.087Z,24.40
2018-09-27T14:48:55.716Z,24.20
2018-09-27T14:51:27.725Z,24.10
2018-09-27T14:53:59.829Z,24.00
2018-09-27T14:56:30.536Z,24.30
2018-09-27T14:59:02.471Z,24.30
2018-09-27T15:01:40.493Z,24.50
2018-09-27T15:04:13.326Z,24.70
2018-09-27T15:06:43.806Z,24.60
2018-09-27T15:09:14.330Z,24.60
2018-09-27T15:11:44.597Z,25.00
2018-09-27T15:14:15.361Z,25.00
2018-09-27T15:16:47.121Z,25.20
2018-09-27T15:19:19.125Z,25.60
2018-09-27T15:21:49.403Z,25.80
2018-09-27T15:24:19.976Z,25.90
2018-09-27T15:26:51.456Z,26.10
2018-09-27T15:29:22.381Z,26.40
2018-09-27T15:31:53.471Z,26.60
2018-09-27T15:34:26.564Z,26.60
2018-09-27T15:37:01.963Z,26.70
2018-09-27T15:39:32.009Z,26.50
2018-09-27T15:42:03.561Z,26.10
2018-09-27T15:44:44.118Z,26.10
2018-09-27T15:47:14.519Z,26.40
2018-09-27T15:49:45.126Z,26.70
2018-09-27T15:52:15.783Z,26.70
2018-09-27T15:54:46.776Z,26.80
2018-09-27T15:57:18.408Z,26.70
2018-09-27T15:59:50.097Z,26.70
2018-09-27T16:02:21.914Z,26.60
2018-09-27T16:04:52.947Z,26.40
2018-09-27T16:07:28.140Z,26.30
2018-09-27T16:10:04.478Z,26.00
2018-09-27T16:12:34.667Z,25.90
2018-09-27T16:15:05.509Z,26.00
2018-09-27T16:17:39.155Z,26.20
2018-09-27T16:20:10.539Z,26.40
2018-09-27T16:22:42.275Z,26.80
2018-09-27T16:25:14.608Z,26.70
2018-09-27T16:27:46.297Z,26.60
2018-09-27T16:30:17.138Z,26.40
2018-09-27T16:32:48.369Z,26.30
2018-09-27T16:35:23.591Z,26.20
2018-09-27T16:37:54.532Z,26.10
2018-09-27T16:40:26.934Z,25.90
2018-09-27T16:42:57.261Z,25.70
2018-09-27T16:45:34.492Z,25.50
2018-09-27T16:48:10.771Z,25.30
2018-09-27T16:50:41.383Z,25.00
2018-09-27T16:53:12.249Z,24.60
2018-09-27T16:55:42.645Z,24.20
2018-09-27T16:58:14.096Z,23.90
2018-09-27T17:00:45.629Z,23.60
2018-09-27T17:03:22.273Z,23.30
2018-09-27T17:05:52.721Z,23.00
2018-09-27T17:08:30.286Z,22.80
2018-09-27T17:11:03.314Z,22.50
2018-09-27T17:13:34.406Z,22.40
2018-09-27T17:16:04.658Z,22.20
2018-09-27T17:18:35.726Z,22.20
2018-09-27T17:21:05.945Z,22.10
2018-09-27T17:23:36.613Z,22.10
2018-09-27T17:26:07.042Z,22.10
2018-09-27T17:28:37.294Z,22.10
2018-09-27T17:31:15.203Z,22.20
2018-09-27T17:33:48.640Z,22.20
2018-09-27T17:36:21.628Z,22.20
2018-09-27T17:38:53.082Z,22.20
2018-09-27T17:41:23.660Z,22.20
2018-09-27T17:43:54.087Z,22.20
2018-09-27T17:46:24.485Z,22.20
2018-09-27T17:48:56.332Z,22.10
2018-09-27T17:51:37.650Z,22.10
2018-09-27T17:54:20.316Z,22.10
2018-09-27T17:56:52.197Z,22.00
2018-09-27T17:59:23.521Z,21.90
2018-09-27T18:01:54.032Z,21.90
2018-09-27T18:04:29.992Z,21.80
2018-09-27T18:07:01.098Z,21.70
2018-09-27T18:09:42.487Z,21.60
2018-09-27T18:12:21.956Z,21.50
2018-09-27T18:15:02.758Z,21.40
2018-09-27T18:17:34.232Z,21.20
2018-09-27T18:20:06.782Z,21.10
2018-09-27T18:22:43.818Z,20.90
2018-09-27T18:25:13.965Z,20.80
2018-09-27T18:27:45.913Z,20.70
2018-09-27T18:30:16.665Z,20.50
2018-09-27T18:32:48.126Z,20.50
2018-09-27T18:35:19.992Z,20.40
2018-09-27T18:37:57.000Z,20.30
2018-09-27T18:40:27.570Z,20.20
2018-09-27T18:42:59.147Z,20.10
2018-09-27T18:45:29.664Z,20.10
2018-09-27T18:48:02.260Z,20.00
2018-09-27T18:50:33.388Z,20.00
2018-09-27T18:53:04.673Z,20.00
2018-09-27T18:55:34.773Z,20.00
2018-09-27T18:58:05.997Z,20.00
2018-09-27T19:00:36.861Z,20.00
2018-09-27T19:03:07.469Z,19.90
2018-09-27T19:05:38.400Z,19.90
2018-09-27T19:08:09.188Z,19.90
2018-09-27T19:10:43.669Z,19.80
2018-09-27T19:15:50.791Z,19.70
2018-09-27T19:18:21.291Z,19.60
2018-09-27T19:20:57.256Z,19.60
2018-09-27T19:23:27.861Z,19.60
2018-09-27T19:25:59.359Z,19.50
2018-09-27T19:28:34.422Z,19.50
2018-09-27T19:31:05.341Z,19.40
2018-09-27T19:33:37.840Z,19.40
2018-09-27T19:36:16.449Z,19.40
2018-09-27T19:38:56.906Z,19.30
2018-09-27T19:41:34.988Z,19.30
2018-09-27T19:44:07.772Z,19.30
2018-09-27T19:46:43.754Z,19.20
2018-09-27T19:51:50.343Z,19.20
2018-09-27T19:54:20.545Z,19.20
2018-09-27T19:56:51.643Z,19.10
2018-09-27T19:59:22.910Z,19.10
2018-09-27T20:01:54.178Z,19.10
2018-09-27T20:04:24.377Z,19.00
2018-09-27T20:06:54.608Z,19.00
2018-09-27T20:09:24.874Z,19.00
2018-09-27T20:11:55.298Z,18.90
2018-09-27T20:14:25.501Z,18.90
2018-09-27T20:16:56.096Z,18.90
2018-09-27T20:22:04.677Z,18.80
2018-09-27T20:24:37.686Z,18.80
2018-09-27T20:27:08.679Z,18.70
2018-09-27T20:29:40.046Z,18.70
2018-09-27T20:32:11.160Z,18.70
2018-09-27T20:34:41.998Z,18.70
2018-09-27T20:37:14.933Z,18.60
2018-09-27T20:39:45.677Z,18.60
2018-09-27T20:42:21.994Z,18.60
2018-09-27T20:44:55.171Z,18.50
2018-09-27T20:47:34.555Z,18.50
2018-09-27T20:50:04.859Z,18.50
2018-09-27T20:52:35.238Z,18.50
2018-09-27T20:55:06.575Z,18.40
2018-09-27T20:57:37.952Z,18.40
2018-09-27T21:00:10.300Z,18.40
2018-09-27T21:02:40.552Z,18.30
2018-09-27T21:05:18.452Z,18.30
2018-09-27T21:07:50.749Z,18.20
2018-09-27T21:10:22.316Z,18.20
2018-09-27T21:12:56.685Z,18.20
2018-09-27T21:15:36.562Z,18.20
2018-09-27T21:18:07.675Z,18.10
2018-09-27T21:20:38.446Z,18.10
2018-09-27T21:23:09.865Z,18.10
2018-09-27T21:25:41.669Z,18.10
2018-09-27T21:28:15.221Z,18.10
2018-09-27T21:30:45.422Z,18.10
2018-09-27T21:33:15.549Z,18.00
2018-09-27T21:35:52.662Z,18.00
2018-09-27T21:38:22.854Z,18.00
2018-09-27T21:40:55.489Z,18.10
2018-09-27T21:43:25.768Z,18.10
2018-09-27T21:45:56.164Z,18.10
2018-09-27T21:48:26.383Z,18.10
2018-09-27T21:50:57.057Z,18.00
2018-09-27T21:53:28.816Z,18.00
2018-09-27T21:56:01.024Z,18.00
2018-09-27T21:58:33.151Z,17.90
2018-09-27T22:01:04.528Z,17.90
2018-09-27T22:03:35.094Z,17.90
2018-09-27T22:06:08.482Z,17.90
2018-09-27T22:08:39.809Z,17.90
2018-09-27T22:11:10.540Z,17.90
2018-09-27T22:13:41.774Z,17.80
2018-09-27T22:16:12.034Z,17.80
2018-09-27T22:18:42.739Z,17.80
2018-09-27T22:21:13.608Z,17.80
2018-09-27T22:23:43.869Z,17.70
2018-09-27T22:26:15.392Z,17.70
2018-09-27T22:28:45.601Z,17.70
2018-09-27T22:31:17.776Z,17.70
2018-09-27T22:33:47.996Z,17.60
2018-09-27T22:36:20.221Z,17.60
2018-09-27T22:38:50.613Z,17.60
2018-09-27T22:41:24.447Z,17.50
2018-09-27T22:43:56.354Z,17.50
2018-09-27T22:46:26.755Z,17.50
2018-09-27T22:48:59.569Z,17.50
2018-09-27T22:51:31.620Z,17.50
2018-09-27T22:54:02.022Z,17.40
2018-09-27T22:56:33.491Z,17.30
2018-09-27T22:59:04.451Z,17.30
2018-09-27T23:01:41.580Z,17.30
2018-09-27T23:04:11.919Z,17.30
2018-09-27T23:06:42.070Z,17.20
2018-09-27T23:09:13.895Z,17.20
2018-09-27T23:11:44.020Z,17.20
2018-09-27T23:14:15.702Z,17.20
2018-09-27T23:16:46.728Z,17.20
2018-09-27T23:19:16.960Z,17.20
2018-09-27T23:21:49.472Z,17.20
2018-09-27T23:24:19.411Z,17.10
2018-09-27T23:26:49.872Z,17.10
2018-09-27T23:29:20.879Z,17.10
2018-09-27T23:31:53.114Z,17.00
2018-09-27T23:34:23.700Z,17.00
2018-09-27T23:36:55.039Z,17.00
2018-09-27T23:39:25.374Z,17.00
2018-09-27T23:41:55.620Z,17.00
2018-09-27T23:44:26.165Z,16.90
2018-09-27T23:46:57.759Z,16.90
2018-09-27T23:49:29.697Z,16.90
2018-09-27T23:52:02.842Z,16.90
2018-09-27T23:54:34.030Z,16.90
2018-09-27T23:57:05.260Z,16.80
2018-09-27T23:59:36.187Z,16.80
